createdAt,value
2022-08-29T00:00:18.493Z,3.77
2022-08-29T00:02:47.988Z,3.80
2022-08-29T00:05:14.863Z,4.17
2022-08-29T00:07:41.465Z,3.70
2022-08-29T00:10:09.134Z,3.90
2022-08-29T00:12:37.180Z,3.90
2022-08-29T00:15:06.463Z,4.50
2022-08-29T00:17:33.358Z,4.07
2022-08-29T00:20:00.115Z,4.30
2022-08-29T00:22:26.754Z,4.33
2022-08-29T00:24:53.419Z,3.97
2022-08-29T00:27:19.995Z,4.30
2022-08-29T00:29:46.593Z,4.20
2022-08-29T00:32:13.358Z,4.13
2022-08-29T00:34:40.077Z,4.17
2022-08-29T00:37:06.651Z,4.63
2022-08-29T00:39:34.113Z,4.10
2022-08-29T00:42:01.433Z,4.40
2022-08-29T00:44:28.592Z,4.80
2022-08-29T00:46:59.241Z,4.40
2022-08-29T00:49:28.908Z,4.10
2022-08-29T00:51:57.530Z,4.60
2022-08-29T00:54:24.792Z,4.37
2022-08-29T00:56:53.398Z,4.47
2022-08-29T00:59:31.219Z,4.30
2022-08-29T01:01:58.426Z,4.13
2022-08-29T01:04:25.102Z,3.77
2022-08-29T01:06:53.292Z,4.20
2022-08-29T01:09:20.930Z,4.17
2022-08-29T01:12:06.349Z,4.70
2022-08-29T01:14:36.769Z,4.47
2022-08-29T01:17:07.883Z,4.00
2022-08-29T01:19:44.825Z,4.03
2022-08-29T01:22:44.627Z,4.47
2022-08-29T01:25:16.183Z,3.80
2022-08-29T01:27:47.871Z,4.27
2022-08-29T01:30:15.150Z,4.03
2022-08-29T01:32:41.769Z,4.60
2022-08-29T01:35:08.708Z,4.23
2022-08-29T01:37:37.557Z,4.53
2022-08-29T01:40:05.391Z,4.17
2022-08-29T01:42:36.477Z,4.30
2022-08-29T01:45:05.390Z,4.30
2022-08-29T01:47:37.900Z,4.20
2022-08-29T01:50:12.730Z,4.23
2022-08-29T01:52:39.371Z,4.10
2022-08-29T01:55:06.470Z,4.30
2022-08-29T01:57:33.157Z,4.27
2022-08-29T02:00:00.990Z,4.57
2022-08-29T02:02:29.082Z,4.47
2022-08-29T02:04:58.648Z,4.40
2022-08-29T02:07:25.961Z,4.30
2022-08-29T02:09:53.320Z,4.40
2022-08-29T02:12:20.719Z,4.40
2022-08-29T02:14:48.319Z,4.53
2022-08-29T02:17:14.986Z,4.33
2022-08-29T02:19:41.953Z,4.33
2022-08-29T02:22:09.888Z,4.27
2022-08-29T02:24:36.638Z,4.57
2022-08-29T02:27:03.935Z,4.33
2022-08-29T02:29:37.090Z,4.50
2022-08-29T02:32:14.756Z,4.80
2022-08-29T02:34:44.421Z,4.70
2022-08-29T02:37:14.365Z,4.23
2022-08-29T02:39:40.998Z,4.07
2022-08-29T02:42:07.593Z,4.10
2022-08-29T02:44:34.299Z,3.97
2022-08-29T02:47:01.019Z,4.17
2022-08-29T02:49:27.705Z,4.37
2022-08-29T02:51:54.505Z,4.80
2022-08-29T02:54:21.093Z,4.47
2022-08-29T02:56:47.851Z,4.67
2022-08-29T02:59:14.459Z,4.33
2022-08-29T03:01:41.188Z,4.80
2022-08-29T03:04:07.937Z,4.40
2022-08-29T03:06:34.577Z,4.87
2022-08-29T03:09:01.474Z,4.40
2022-08-29T03:11:28.706Z,4.60
2022-08-29T03:13:57.952Z,4.60
2022-08-29T03:16:26.040Z,5.17
2022-08-29T03:18:53.259Z,5.27
2022-08-29T03:21:22.387Z,4.60
2022-08-29T03:23:50.491Z,4.80
2022-08-29T03:26:18.214Z,4.80
2022-08-29T03:28:45.086Z,4.97
2022-08-29T03:31:11.783Z,5.10
2022-08-29T03:33:38.485Z,4.77
2022-08-29T03:36:13.907Z,5.37
2022-08-29T03:38:41.611Z,5.03
2022-08-29T03:41:08.222Z,5.20
2022-08-29T03:43:34.944Z,5.10
2022-08-29T03:46:01.776Z,4.80
2022-08-29T03:48:28.748Z,4.90
2022-08-29T03:50:56.553Z,4.63
2022-08-29T03:53:23.339Z,4.77
2022-08-29T03:55:49.975Z,4.67
2022-08-29T03:58:16.923Z,4.67
2022-08-29T04:00:44.809Z,4.97
2022-08-29T04:03:11.436Z,4.73
2022-08-29T04:05:38.158Z,4.97
2022-08-29T04:08:05.283Z,5.27
2022-08-29T04:10:35.139Z,4.60
2022-08-29T04:13:02.181Z,4.90
2022-08-29T04:15:30.512Z,5.27
2022-08-29T04:17:59.812Z,4.83
2022-08-29T04:20:30.190Z,4.60
2022-08-29T04:22:57.733Z,5.00
2022-08-29T04:25:26.564Z,5.20
2022-08-29T04:27:54.554Z,5.07
2022-08-29T04:30:24.723Z,4.90
2022-08-29T04:32:51.916Z,5.23
2022-08-29T04:35:18.554Z,5.30
2022-08-29T04:37:45.138Z,5.43
2022-08-29T04:40:18.387Z,4.90
2022-08-29T04:42:47.112Z,5.50
2022-08-29T04:45:17.990Z,5.80
2022-08-29T04:47:45.599Z,5.53
2022-08-29T04:50:18.141Z,5.80
2022-08-29T04:52:45.292Z,5.53
2022-08-29T04:55:14.142Z,5.40
2022-08-29T04:57:41.983Z,5.80
2022-08-29T05:00:13.052Z,5.60
2022-08-29T05:02:41.670Z,5.50
2022-08-29T05:05:10.405Z,5.30
2022-08-29T05:07:38.362Z,5.70
2022-08-29T05:10:09.306Z,6.87
2022-08-29T05:12:36.523Z,6.03
2022-08-29T05:15:04.310Z,6.37
2022-08-29T05:17:31.037Z,5.53
2022-08-29T05:19:58.339Z,5.60
2022-08-29T05:22:25.395Z,5.87
2022-08-29T05:24:53.410Z,6.30
2022-08-29T05:27:22.284Z,6.13
2022-08-29T05:29:51.400Z,7.20
2022-08-29T05:32:21.623Z,7.60
2022-08-29T05:34:49.547Z,7.50
2022-08-29T05:37:20.323Z,7.60
2022-08-29T05:39:48.099Z,7.70
2022-08-29T05:42:17.060Z,7.67
2022-08-29T05:44:44.108Z,8.80
2022-08-29T05:47:13.287Z,7.70
2022-08-29T05:49:41.876Z,8.40
2022-08-29T05:52:08.886Z,7.40
2022-08-29T05:54:38.663Z,8.37
2022-08-29T05:57:07.194Z,7.07
2022-08-29T05:59:34.754Z,6.97
2022-08-29T06:02:01.547Z,7.00
2022-08-29T06:04:28.175Z,7.13
2022-08-29T06:06:54.784Z,7.77
2022-08-29T06:09:21.392Z,6.97
2022-08-29T06:11:49.842Z,7.43
2022-08-29T06:14:17.090Z,7.40
2022-08-29T06:16:43.749Z,7.30
2022-08-29T06:19:10.660Z,6.60
2022-08-29T06:21:37.418Z,6.97
2022-08-29T06:24:04.856Z,6.90
2022-08-29T06:26:31.775Z,6.83
2022-08-29T06:28:58.687Z,7.17
2022-08-29T06:31:29.224Z,6.67
2022-08-29T06:33:59.268Z,6.27
2022-08-29T06:36:28.123Z,6.23
2022-08-29T06:38:59.960Z,5.87
2022-08-29T06:41:27.240Z,5.70
2022-08-29T06:43:56.730Z,6.40
2022-08-29T06:46:31.240Z,6.97
2022-08-29T06:48:59.761Z,6.40
2022-08-29T06:51:28.028Z,6.33
2022-08-29T06:53:54.640Z,7.10
2022-08-29T06:56:21.336Z,6.77
2022-08-29T06:58:47.953Z,6.57
2022-08-29T07:01:16.907Z,7.20
2022-08-29T07:03:43.587Z,7.20
2022-08-29T07:06:11.210Z,7.07
2022-08-29T07:08:43.634Z,6.67
2022-08-29T07:11:19.882Z,6.83
2022-08-29T07:13:46.698Z,6.50
2022-08-29T07:16:16.676Z,6.30
2022-08-29T07:18:44.764Z,6.67
2022-08-29T07:21:18.168Z,6.23
2022-08-29T07:23:46.827Z,6.13
2022-08-29T07:26:38.930Z,6.70
2022-08-29T07:29:10.415Z,6.70
2022-08-29T07:31:39.054Z,6.63
2022-08-29T07:34:06.297Z,6.30
2022-08-29T07:36:34.359Z,6.57
2022-08-29T07:39:02.339Z,6.67
2022-08-29T07:41:29.069Z,6.27
2022-08-29T07:43:56.170Z,6.45
2022-08-29T07:46:22.950Z,5.70
2022-08-29T07:48:49.673Z,6.27
2022-08-29T07:51:19.328Z,6.70
2022-08-29T07:53:46.809Z,6.53
2022-08-29T07:56:16.674Z,6.55
2022-08-29T07:58:43.380Z,6.18
2022-08-29T08:01:12.547Z,6.55
2022-08-29T08:03:49.870Z,6.50
2022-08-29T08:06:17.451Z,6.22
2022-08-29T08:08:44.184Z,6.25
2022-08-29T08:11:10.858Z,5.60
2022-08-29T08:13:38.424Z,6.53
2022-08-29T08:16:11.850Z,6.00
2022-08-29T08:18:39.873Z,6.47
2022-08-29T08:21:06.685Z,5.75
2022-08-29T08:23:33.427Z,5.88
2022-08-29T08:26:00.198Z,5.88
2022-08-29T08:28:28.152Z,6.43
2022-08-29T08:30:55.267Z,6.63
2022-08-29T08:33:21.938Z,6.23
2022-08-29T08:35:48.573Z,6.03
2022-08-29T08:38:16.994Z,6.60
2022-08-29T08:40:57.004Z,6.07
2022-08-29T08:43:32.522Z,6.10
2022-08-29T08:45:59.489Z,6.20
2022-08-29T08:48:34.411Z,6.63
2022-08-29T08:51:11.134Z,6.22
2022-08-29T08:53:46.821Z,6.05
2022-08-29T08:56:22.830Z,6.90
2022-08-29T08:58:55.099Z,6.38
2022-08-29T09:01:27.862Z,5.75
2022-08-29T09:04:27.127Z,6.07
2022-08-29T09:07:22.322Z,6.25
2022-08-29T09:10:24.477Z,6.28
2022-08-29T09:13:21.735Z,6.15
2022-08-29T09:15:51.721Z,6.30
2022-08-29T09:18:35.110Z,6.05
2022-08-29T09:21:18.484Z,5.63
2022-08-29T09:23:59.712Z,5.63
2022-08-29T09:26:29.413Z,6.22
2022-08-29T09:28:57.119Z,6.78
2022-08-29T09:31:32.661Z,8.15
2022-08-29T09:34:12.280Z,5.97
2022-08-29T09:36:45.843Z,5.95
2022-08-29T09:39:24.038Z,6.45
2022-08-29T09:41:57.464Z,6.05
2022-08-29T09:44:32.045Z,6.10
2022-08-29T09:47:14.533Z,6.38
2022-08-29T09:49:59.194Z,5.85
2022-08-29T09:52:26.351Z,6.00
2022-08-29T09:54:52.930Z,5.97
2022-08-29T09:57:19.473Z,5.40
2022-08-29T10:00:11.937Z,5.68
2022-08-29T10:02:49.205Z,6.43
2022-08-29T10:05:30.533Z,5.93
2022-08-29T10:07:58.137Z,6.07
2022-08-29T10:10:30.792Z,5.95
2022-08-29T10:13:15.344Z,6.28
2022-08-29T10:15:51.011Z,6.05
2022-08-29T10:18:32.570Z,5.95
2022-08-29T10:21:30.410Z,6.50
2022-08-29T10:24:38.245Z,5.78
2022-08-29T10:27:23.742Z,5.95
2022-08-29T10:30:11.054Z,5.72
2022-08-29T10:32:52.183Z,6.00
2022-08-29T10:35:24.248Z,5.72
2022-08-29T10:38:07.762Z,6.68
2022-08-29T10:40:49.399Z,6.93
2022-08-29T10:43:33.711Z,6.00
2022-08-29T10:46:47.450Z,5.93
2022-08-29T10:49:45.023Z,6.03
2022-08-29T10:52:21.414Z,5.78
2022-08-29T10:55:08.722Z,5.78
2022-08-29T10:58:06.500Z,5.55
2022-08-29T11:01:08.304Z,6.07
2022-08-29T11:03:58.637Z,6.18
2022-08-29T11:06:40.233Z,6.40
2022-08-29T11:09:16.357Z,6.00
2022-08-29T11:11:56.025Z,5.80
2022-08-29T11:14:28.938Z,6.70
2022-08-29T11:16:56.298Z,6.10
2022-08-29T11:19:31.626Z,5.93
2022-08-29T11:22:21.175Z,5.68
2022-08-29T11:25:02.083Z,5.85
2022-08-29T11:27:54.050Z,6.03
2022-08-29T11:30:26.522Z,5.43
2022-08-29T11:33:19.045Z,5.35
2022-08-29T11:36:05.345Z,6.18
2022-08-29T11:38:59.374Z,5.68
2022-08-29T11:41:32.840Z,5.78
2022-08-29T11:44:26.270Z,5.10
2022-08-29T11:46:56.212Z,5.20
2022-08-29T11:49:43.369Z,4.97
2022-08-29T11:52:12.710Z,4.90
2022-08-29T11:54:40.028Z,5.20
2022-08-29T11:57:09.584Z,5.43
2022-08-29T11:59:50.951Z,5.40
2022-08-29T12:02:32.627Z,5.25
2022-08-29T12:05:04.691Z,5.25
2022-08-29T12:07:34.017Z,5.53
2022-08-29T12:10:05.374Z,5.20
2022-08-29T12:12:51.250Z,5.00
2022-08-29T12:15:27.086Z,5.25
2022-08-29T12:18:04.495Z,4.75
2022-08-29T12:20:31.175Z,5.00
2022-08-29T12:23:01.407Z,5.00
2022-08-29T12:25:28.048Z,5.63
2022-08-29T12:28:27.887Z,5.43
2022-08-29T12:32:02.360Z,4.63
2022-08-29T12:35:08.725Z,6.00
2022-08-29T12:37:52.227Z,5.07
2022-08-29T12:40:34.104Z,4.78
2022-08-29T12:43:29.046Z,4.45
2022-08-29T12:45:56.185Z,4.50
2022-08-29T12:48:46.276Z,4.88
2022-08-29T12:51:47.802Z,5.10
2022-08-29T12:54:14.650Z,4.55
2022-08-29T12:56:47.611Z,4.35
2022-08-29T12:59:19.857Z,4.88
2022-08-29T13:01:49.242Z,4.70
2022-08-29T13:04:19.645Z,4.47
2022-08-29T13:06:56.799Z,4.82
2022-08-29T13:09:33.148Z,4.78
2022-08-29T13:12:26.378Z,4.35
2022-08-29T13:14:56.976Z,4.80
2022-08-29T13:17:41.634Z,4.45
2022-08-29T13:20:46.013Z,4.72
2022-08-29T13:23:12.569Z,4.53
2022-08-29T13:25:48.561Z,4.35
2022-08-29T13:28:43.975Z,4.43
2022-08-29T13:31:16.863Z,4.50
2022-08-29T13:33:49.341Z,4.90
2022-08-29T13:36:28.179Z,4.28
2022-08-29T13:39:26.322Z,4.65
2022-08-29T13:42:02.236Z,4.03
2022-08-29T13:44:32.964Z,4.25
2022-08-29T13:47:02.223Z,4.35
2022-08-29T13:49:32.715Z,4.40
2022-08-29T13:52:00.284Z,4.05
2022-08-29T13:54:33.052Z,4.57
2022-08-29T13:57:04.443Z,4.50
2022-08-29T13:59:36.625Z,4.68
2022-08-29T14:02:11.731Z,4.20
2022-08-29T14:04:40.885Z,3.63
2022-08-29T14:07:16.555Z,4.10
2022-08-29T14:09:44.413Z,3.63
2022-08-29T14:12:12.491Z,3.55
2022-08-29T14:14:39.092Z,3.53
2022-08-29T14:17:05.848Z,3.78
2022-08-29T14:19:32.704Z,3.80
2022-08-29T14:22:00.419Z,3.90
2022-08-29T14:24:29.092Z,3.60
2022-08-29T14:27:01.607Z,3.53
2022-08-29T14:29:33.381Z,3.50
2022-08-29T14:32:03.075Z,3.63
2022-08-29T14:34:32.523Z,3.28
2022-08-29T14:37:01.076Z,3.22
2022-08-29T14:39:28.184Z,3.40
2022-08-29T14:41:55.038Z,3.50
2022-08-29T14:44:22.164Z,3.78
2022-08-29T14:46:49.278Z,3.10
2022-08-29T14:49:16.015Z,3.22
2022-08-29T14:51:44.167Z,3.00
2022-08-29T14:54:11.311Z,3.30
2022-08-29T14:56:49.175Z,3.22
2022-08-29T14:59:21.140Z,2.83
2022-08-29T15:01:53.788Z,2.80
2022-08-29T15:04:35.772Z,2.70
2022-08-29T15:07:03.799Z,2.90
2022-08-29T15:09:30.456Z,3.33
2022-08-29T15:11:57.011Z,2.35
2022-08-29T15:14:23.577Z,2.85
2022-08-29T15:16:50.162Z,2.90
2022-08-29T15:22:05.372Z,3.03
2022-08-29T15:24:32.929Z,3.08
2022-08-29T15:26:59.790Z,2.63
2022-08-29T15:29:27.267Z,2.80
2022-08-29T15:31:57.076Z,3.20
2022-08-29T15:34:25.549Z,2.60
2022-08-29T15:36:53.235Z,2.80
2022-08-29T15:39:19.932Z,2.70
2022-08-29T15:41:46.878Z,2.63
2022-08-29T15:44:13.991Z,2.30
2022-08-29T15:46:50.350Z,2.20
2022-08-29T15:49:19.238Z,2.25
2022-08-29T15:51:46.238Z,2.50
2022-08-29T15:54:13.414Z,2.08
2022-08-29T15:56:40.086Z,2.35
2022-08-29T15:59:09.525Z,2.00
2022-08-29T16:01:42.042Z,2.10
2022-08-29T16:04:09.474Z,1.92
2022-08-29T16:06:36.409Z,1.73
2022-08-29T16:09:09.080Z,2.00
2022-08-29T16:11:43.642Z,1.90
2022-08-29T16:14:46.878Z,1.80
2022-08-29T16:16:59.616Z,1.85
2022-08-29T16:19:26.300Z,2.00
2022-08-29T16:21:53.607Z,1.95
2022-08-29T16:24:21.764Z,1.70
2022-08-29T16:26:48.635Z,2.00
2022-08-29T16:29:15.221Z,2.10
2022-08-29T16:31:51.712Z,1.83
2022-08-29T16:34:18.350Z,2.10
2022-08-29T16:36:44.939Z,2.05
2022-08-29T16:39:13.217Z,1.88
2022-08-29T16:41:40.181Z,2.13
2022-08-29T16:44:08.142Z,1.67
2022-08-29T16:46:34.757Z,1.70
2022-08-29T16:49:01.515Z,1.73
2022-08-29T16:51:29.323Z,1.80
2022-08-29T16:53:58.615Z,1.80
2022-08-29T16:56:26.080Z,2.15
2022-08-29T16:59:02.862Z,1.90
2022-08-29T17:01:42.921Z,1.50
2022-08-29T17:04:13.342Z,1.80
2022-08-29T17:06:40.235Z,1.70
2022-08-29T17:09:09.093Z,1.55
2022-08-29T17:11:37.361Z,2.35
2022-08-29T17:14:04.990Z,2.08
2022-08-29T17:16:34.448Z,1.98
2022-08-29T17:19:01.151Z,1.70
2022-08-29T17:21:28.091Z,1.80
2022-08-29T17:23:55.385Z,1.80
2022-08-29T17:26:23.225Z,1.80
2022-08-29T17:28:50.423Z,1.85
2022-08-29T17:31:18.058Z,2.10
2022-08-29T17:33:45.934Z,1.98
2022-08-29T17:36:12.669Z,1.40
2022-08-29T17:38:46.803Z,1.70
2022-08-29T17:41:19.388Z,2.17
2022-08-29T17:43:48.521Z,1.92
2022-08-29T17:46:17.211Z,1.80
2022-08-29T17:48:44.406Z,2.00
2022-08-29T17:51:12.064Z,3.38
2022-08-29T17:53:39.698Z,1.77
2022-08-29T17:56:13.815Z,1.33
2022-08-29T17:58:40.603Z,1.67
2022-08-29T18:01:15.067Z,1.38
2022-08-29T18:03:42.853Z,1.40
2022-08-29T18:06:10.190Z,1.63
2022-08-29T18:08:39.101Z,1.52
2022-08-29T18:11:06.176Z,1.60
2022-08-29T18:13:33.853Z,1.52
2022-08-29T18:16:00.493Z,1.80
2022-08-29T18:18:28.902Z,1.40
2022-08-29T18:20:55.507Z,1.65
2022-08-29T18:23:22.113Z,2.13
2022-08-29T18:25:48.707Z,1.90
2022-08-29T18:28:15.442Z,2.63
2022-08-29T18:30:42.343Z,2.22
2022-08-29T18:33:09.631Z,2.50
2022-08-29T18:35:36.355Z,2.45
2022-08-29T18:38:02.968Z,2.40
2022-08-29T18:40:38.914Z,2.75
2022-08-29T18:43:07.109Z,2.22
2022-08-29T18:45:37.030Z,2.78
2022-08-29T18:48:04.729Z,2.88
2022-08-29T18:50:34.421Z,3.20
2022-08-29T18:53:17.456Z,3.95
2022-08-29T18:55:51.020Z,3.70
2022-08-29T18:58:21.305Z,3.50
2022-08-29T19:00:48.670Z,4.10
2022-08-29T19:03:15.651Z,4.53
2022-08-29T19:05:49.312Z,3.83
2022-08-29T19:08:17.603Z,4.05
2022-08-29T19:10:45.870Z,3.78
2022-08-29T19:13:13.851Z,3.42
2022-08-29T19:15:41.808Z,3.85
2022-08-29T19:18:10.566Z,3.38
2022-08-29T19:20:55.878Z,3.60
2022-08-29T19:23:23.871Z,3.20
2022-08-29T19:25:51.276Z,3.30
2022-08-29T19:28:19.719Z,3.20
2022-08-29T19:30:47.730Z,2.80
2022-08-29T19:33:18.400Z,2.55
2022-08-29T19:35:51.074Z,2.50
2022-08-29T19:38:20.129Z,2.80
2022-08-29T19:40:48.561Z,3.03
2022-08-29T19:43:16.012Z,2.70
2022-08-29T19:45:44.086Z,2.80
2022-08-29T19:48:15.161Z,2.80
2022-08-29T19:50:47.542Z,2.45
2022-08-29T19:53:17.052Z,2.40
2022-08-29T19:55:52.714Z,2.50
2022-08-29T19:58:19.338Z,2.90
2022-08-29T20:00:46.039Z,3.15
2022-08-29T20:03:13.339Z,2.50
2022-08-29T20:05:40.573Z,2.60
2022-08-29T20:08:07.186Z,2.40
2022-08-29T20:10:34.922Z,2.40
2022-08-29T20:13:01.504Z,2.40
2022-08-29T20:15:30.911Z,2.90
2022-08-29T20:17:59.862Z,2.42
2022-08-29T20:20:31.210Z,2.40
2022-08-29T20:22:57.800Z,3.08
2022-08-29T20:25:24.814Z,3.40
2022-08-29T20:27:51.929Z,2.67
2022-08-29T20:30:23.961Z,2.67
2022-08-29T20:32:51.555Z,3.35
2022-08-29T20:35:39.349Z,3.75
2022-08-29T20:38:06.564Z,2.80
2022-08-29T20:40:37.073Z,2.42
2022-08-29T20:43:03.763Z,2.47
2022-08-29T20:45:30.388Z,3.28
2022-08-29T20:47:57.920Z,2.38
2022-08-29T20:50:25.486Z,2.25
2022-08-29T20:52:53.887Z,2.38
2022-08-29T20:55:21.053Z,2.28
2022-08-29T20:57:47.686Z,2.63
2022-08-29T21:00:14.913Z,2.10
2022-08-29T21:03:00.560Z,2.35
2022-08-29T21:05:41.316Z,2.15
2022-08-29T21:08:16.391Z,2.42
2022-08-29T21:10:44.174Z,2.30
2022-08-29T21:13:10.886Z,2.47
2022-08-29T21:15:39.726Z,2.23
2022-08-29T21:18:07.783Z,2.63
2022-08-29T21:20:44.806Z,2.73
2022-08-29T21:23:22.700Z,2.37
2022-08-29T21:25:54.405Z,2.63
2022-08-29T21:28:21.400Z,2.17
2022-08-29T21:30:49.220Z,2.50
2022-08-29T21:33:16.037Z,2.80
2022-08-29T21:35:42.807Z,2.77
2022-08-29T21:38:10.704Z,2.83
2022-08-29T21:40:44.121Z,2.60
2022-08-29T21:43:19.261Z,2.78
2022-08-29T21:45:45.973Z,2.90
2022-08-29T21:48:12.587Z,2.70
2022-08-29T21:50:39.222Z,2.90
2022-08-29T21:53:05.827Z,2.70
2022-08-29T21:55:32.969Z,2.78
2022-08-29T21:58:00.638Z,3.57
2022-08-29T22:00:35.331Z,3.10
2022-08-29T22:03:05.623Z,2.97
2022-08-29T22:05:32.816Z,2.90
2022-08-29T22:08:02.928Z,3.13
2022-08-29T22:10:35.731Z,3.00
2022-08-29T22:13:04.273Z,2.77
2022-08-29T22:15:49.724Z,3.47
2022-08-29T22:18:17.959Z,3.20
2022-08-29T22:20:47.103Z,2.58
2022-08-29T22:23:17.504Z,2.80
2022-08-29T22:25:46.848Z,2.90
2022-08-29T22:28:13.437Z,3.20
2022-08-29T22:30:40.189Z,2.70
2022-08-29T22:33:07.399Z,2.60
2022-08-29T22:35:34.865Z,2.87
2022-08-29T22:38:01.761Z,2.80
2022-08-29T22:40:28.540Z,3.10
2022-08-29T22:42:56.441Z,2.95
2022-08-29T22:45:23.527Z,2.80
2022-08-29T22:47:50.139Z,3.33
2022-08-29T22:50:21.157Z,2.93
2022-08-29T22:52:49.045Z,2.97
2022-08-29T22:55:20.184Z,3.20
2022-08-29T22:57:47.162Z,3.43
2022-08-29T23:00:17.873Z,3.70
2022-08-29T23:02:44.593Z,3.43
2022-08-29T23:05:11.526Z,3.57
2022-08-29T23:07:38.263Z,3.50
2022-08-29T23:10:07.937Z,3.70
2022-08-29T23:12:36.115Z,3.40
2022-08-29T23:15:06.287Z,3.70
2022-08-29T23:17:32.842Z,3.50
2022-08-29T23:19:59.479Z,3.38
2022-08-29T23:22:26.538Z,2.97
2022-08-29T23:24:58.443Z,3.60
2022-08-29T23:27:27.521Z,3.07
2022-08-29T23:29:54.117Z,3.80
2022-08-29T23:32:20.724Z,3.10
2022-08-29T23:34:47.297Z,2.83
2022-08-29T23:37:13.900Z,3.33
2022-08-29T23:39:40.487Z,3.23
2022-08-29T23:42:07.164Z,3.33
2022-08-29T23:44:33.835Z,3.10
2022-08-29T23:47:00.417Z,3.37
2022-08-29T23:49:27.347Z,3.43
2022-08-29T23:51:53.909Z,3.10
2022-08-29T23:54:20.692Z,3.40
2022-08-29T23:56:47.335Z,3.03
2022-08-29T23:59:33.925Z,3.33
